Planet Ace — 3EYF9 — position and weather

sailwx.info

Track history (hours):
 
Tides and Currents Weather Stations Pressure Air Temp Water Temp Dewpoint Dewpoint Depression Visibility Wind Speed Wind Dir Waves Ship Positions

Planet Ace

Last reported at 2015-Mar-05 13:26 UTC. Time now 2015-Mar-06 04:03 UTC.
Position N 55°02' W 001°21'.

Length 188 m; beam 28.2 m.

Type: Cargo ship. MMSI: 352168000.

Date/timePositionNaut miles runAvg speedWind from/ knotsBaromVisibWave heightAir tempDewpointWater temp
2015-Mar-05 13:26N 55°02' W 001°21'10 9.2
2015-Mar-05 12:22N 54°56' W 001°07'1214.4
2015-Mar-05 11:33N 54°48' W 000°54'1515.3
2015-Mar-05 10:33N 54°37' W 000°35'1616.2
2015-Mar-05 09:33N 54°25' W 000°16'1616.2
2015-Mar-05 08:33N 54°13' E 000°02'1616.3
2015-Mar-05 07:33N 53°58' E 000°15'1515.2
2015-Mar-05 06:33N 53°43' E 000°21'1211.8
2015-Mar-05 05:33N 53°33' E 000°13'9 9.5
2015-Mar-05 04:34N 53°35' W 000°02'1 1.3
2015-Mar-05 03:33N 53°35' W 000°04'0 0.0
2015-Mar-05 02:33N 53°35' W 000°04'0 0.0
2015-Mar-05 01:33N 53°35' W 000°04'0 0.0
2015-Mar-05 00:33N 53°35' W 000°04'0 0.0
2015-Mar-04 23:32N 53°35' W 000°04'0 0.0
2015-Mar-04 22:33N 53°35' W 000°04'0 0.0
2015-Mar-04 21:32N 53°35' W 000°04'0 0.0
2015-Mar-04 20:32N 53°35' W 000°04'0 0.0
2015-Mar-04 19:32N 53°35' W 000°04'0 0.0
2015-Mar-04 18:32N 53°35' W 000°04'0 0.0
2015-Mar-04 17:32N 53°35' W 000°04'1 1.0
2015-Mar-04 16:34N 53°35' W 000°02'9 9.4
2015-Mar-04 15:33N 53°33' E 000°13'7 6.9
2015-Mar-04 14:33N 53°33' E 000°25'1110.7
2015-Mar-04 13:33N 53°42' E 000°34'3 2.8
2015-Mar-04 12:33N 53°45' E 000°35'2 2.1
2015-Mar-04 11:33N 53°47' E 000°36'2 1.5
2015-Mar-04 10:32N 53°47' E 000°38'1110.4
2015-Mar-04 09:30N 53°44' E 000°56'2 1.6
2015-Mar-04 08:07N 53°46' E 000°54'1 2.6
2015-Mar-04 07:33N 53°47' E 000°52'3 2.9
2015-Mar-04 06:33N 53°45' E 000°50'1 0.9
2015-Mar-04 05:14N 53°44' E 000°48'3 4.5
2015-Mar-04 04:32N 53°47' E 000°46'4 4.4
2015-Mar-04 03:33N 53°51' E 000°42'4 3.5
2015-Mar-04 02:33N 53°53' E 000°37'3 2.8
2015-Mar-04 01:33N 53°50' E 000°38'4414.7
2015-Mar-03 22:33N 53°13' E 001°18'1514.7
2015-Mar-03 21:34N 53°00' E 001°31'1413.9
2015-Mar-03 20:33N 52°51' E 001°47'1212.3
2015-Mar-03 19:33N 52°42' E 002°02'1212.3
2015-Mar-03 18:33N 52°30' E 002°02'1413.6
2015-Mar-03 17:33N 52°17' E 001°57'1514.6
2015-Mar-03 16:33N 52°03' E 001°52'1615.6
2015-Mar-03 15:33N 51°47' E 001°48'1515.1
2015-Mar-03 14:33N 51°33' E 001°41'1211.6
2015-Mar-03 13:33N 51°28' E 001°24'1615.6
2015-Mar-03 12:33N 51°29' E 000°59'9 9.4
2015-Mar-03 11:33N 51°26' E 000°44'0 0.0
2015-Mar-03 10:32N 51°26' E 000°44'0 0.0
2015-Mar-03 09:29N 51°26' E 000°44'0 0.0
2015-Mar-03 08:32N 51°26' E 000°44'0 0.0
2015-Mar-03 07:32N 51°26' E 000°44'0 0.0
2015-Mar-03 06:26N 51°26' E 000°44'0 0.0
2015-Mar-03 05:32N 51°26' E 000°44'0 0.0
2015-Mar-03 04:32N 51°26' E 000°44'0 0.0
2015-Mar-03 03:29N 51°26' E 000°44'0 0.0
2015-Mar-03 02:32N 51°26' E 000°44'0 0.0
2015-Mar-03 01:32N 51°26' E 000°44'0 0.0
2015-Mar-03 00:28N 51°26' E 000°44'0 0.0
2015-Mar-02 23:28N 51°26' E 000°44'0 0.0
2015-Mar-02 22:31N 51°26' E 000°44'0 0.0
2015-Mar-02 21:33N 51°26' E 000°44'9 9.0
2015-Mar-02 20:34N 51°29' E 000°58'1313.3
2015-Mar-02 19:33N 51°29' E 001°20'1010.1
2015-Mar-02 18:34N 51°23' E 001°33'1110.8
2015-Mar-02 17:33N 51°13' E 001°37'1110.6
2015-Mar-02 16:33N 51°02' E 001°34'1312.9
2015-Mar-02 15:32N 50°51' E 001°24'10813.6
2015-Mar-02 07:33N 50°20' W 001°20'5916.9
2015-Mar-02 04:03N 50°24' W 002°53'815.6
2015-Mar-02 03:33N 50°24' W 003°05'1414.3
2015-Mar-02 02:33N 50°25' W 003°27'1211.6
2015-Mar-02 01:33N 50°13' W 003°28'396 7.9
2015-Feb-27 23:28N 43°43' W 005°04'1414.7
2015-Feb-27 22:31N 43°47' W 005°23'6 2.4
2015-Feb-27 20:03N 43°51' W 005°29'3 1.6
2015-Feb-27 18:09N 43°54' W 005°31'2 2.8
2015-Feb-27 17:25N 43°54' W 005°34'1213.9
2015-Feb-27 16:33N 43°55' W 005°50'33610.7
2015-Feb-26 09:16N 39°11' W 009°51'1312.9
2015-Feb-26 08:17N 38°58' W 009°51'912.9
2015-Feb-26 07:33N 38°49' W 009°51'1212.6
2015-Feb-26 06:33N 38°37' W 009°48'1212.3
2015-Feb-26 05:33N 38°29' W 009°36'1313.1
2015-Feb-26 04:33N 38°23' W 009°21'1312.7
2015-Feb-26 03:33N 38°23' W 009°05'1010.5
2015-Feb-26 02:33N 38°30' W 008°55'2 2.3
2015-Feb-26 01:30N 38°31' W 008°52'0 0.0
2015-Feb-26 00:12N 38°31' W 008°52'0 0.0
2015-Feb-25 21:03N 38°31' W 008°52'0 0.0
2015-Feb-25 17:24N 38°31' W 008°52'0 0.0
2015-Feb-25 16:18N 38°31' W 008°52'2 3.1
2015-Feb-25 15:33N 38°30' W 008°55'8 7.5
2015-Feb-25 14:33N 38°24' W 009°00'9 8.9
2015-Feb-25 13:33N 38°15' W 009°02'1414.1
2015-Feb-25 12:33N 38°01' W 009°06'1313.1
2015-Feb-25 11:33N 37°49' W 009°10'1313.1
2015-Feb-25 10:33N 37°36' W 009°13'6310.6
2015-Feb-25 04:33N 36°37' W 008°43'1313.3
2015-Feb-25 03:32N 36°33' W 008°27'14313.7
2015-Feb-24 17:04N 35°58' W 005°35'712.8
2015-Feb-24 16:33N 35°59' W 005°27'1110.9
2015-Feb-24 15:33N 36°01' W 005°14'  
Track history (hours):
 
Tides and Currents Weather Stations Pressure Air Temp Water Temp Dewpoint Dewpoint Depression Visibility Wind Speed Wind Dir Waves Ship Positions

Planet Ace

Last reported at 2015-Mar-05 13:26 UTC. Time now 2015-Mar-06 04:03 UTC.
Position N 55°02' W 001°21'.

Length 188 m; beam 28.2 m.

Type: Cargo ship. MMSI: 352168000.

Date/timePositionNaut miles runAvg speedWind from/ knotsBaromVisibWave heightAir tempDewpointWater temp
2015-Mar-05 13:26N 55°02' W 001°21'10 9.2
2015-Mar-05 12:22N 54°56' W 001°07'1214.4
2015-Mar-05 11:33N 54°48' W 000°54'1515.3
2015-Mar-05 10:33N 54°37' W 000°35'1616.2
2015-Mar-05 09:33N 54°25' W 000°16'1616.2
2015-Mar-05 08:33N 54°13' E 000°02'1616.3
2015-Mar-05 07:33N 53°58' E 000°15'1515.2
2015-Mar-05 06:33N 53°43' E 000°21'1211.8
2015-Mar-05 05:33N 53°33' E 000°13'9 9.5
2015-Mar-05 04:34N 53°35' W 000°02'1 1.3
2015-Mar-05 03:33N 53°35' W 000°04'0 0.0
2015-Mar-05 02:33N 53°35' W 000°04'0 0.0
2015-Mar-05 01:33N 53°35' W 000°04'0 0.0
2015-Mar-05 00:33N 53°35' W 000°04'0 0.0
2015-Mar-04 23:32N 53°35' W 000°04'0 0.0
2015-Mar-04 22:33N 53°35' W 000°04'0 0.0
2015-Mar-04 21:32N 53°35' W 000°04'0 0.0
2015-Mar-04 20:32N 53°35' W 000°04'0 0.0
2015-Mar-04 19:32N 53°35' W 000°04'0 0.0
2015-Mar-04 18:32N 53°35' W 000°04'0 0.0
2015-Mar-04 17:32N 53°35' W 000°04'1 1.0
2015-Mar-04 16:34N 53°35' W 000°02'9 9.4
2015-Mar-04 15:33N 53°33' E 000°13'7 6.9
2015-Mar-04 14:33N 53°33' E 000°25'1110.7
2015-Mar-04 13:33N 53°42' E 000°34'3 2.8
2015-Mar-04 12:33N 53°45' E 000°35'2 2.1
2015-Mar-04 11:33N 53°47' E 000°36'2 1.5
2015-Mar-04 10:32N 53°47' E 000°38'1110.4
2015-Mar-04 09:30N 53°44' E 000°56'2 1.6
2015-Mar-04 08:07N 53°46' E 000°54'1 2.6
2015-Mar-04 07:33N 53°47' E 000°52'3 2.9
2015-Mar-04 06:33N 53°45' E 000°50'1 0.9
2015-Mar-04 05:14N 53°44' E 000°48'3 4.5
2015-Mar-04 04:32N 53°47' E 000°46'4 4.4
2015-Mar-04 03:33N 53°51' E 000°42'4 3.5
2015-Mar-04 02:33N 53°53' E 000°37'3 2.8
2015-Mar-04 01:33N 53°50' E 000°38'4414.7
2015-Mar-03 22:33N 53°13' E 001°18'1514.7
2015-Mar-03 21:34N 53°00' E 001°31'1413.9
2015-Mar-03 20:33N 52°51' E 001°47'1212.3
2015-Mar-03 19:33N 52°42' E 002°02'1212.3
2015-Mar-03 18:33N 52°30' E 002°02'1413.6
2015-Mar-03 17:33N 52°17' E 001°57'1514.6
2015-Mar-03 16:33N 52°03' E 001°52'1615.6
2015-Mar-03 15:33N 51°47' E 001°48'1515.1
2015-Mar-03 14:33N 51°33' E 001°41'1211.6
2015-Mar-03 13:33N 51°28' E 001°24'1615.6
2015-Mar-03 12:33N 51°29' E 000°59'9 9.4
2015-Mar-03 11:33N 51°26' E 000°44'0 0.0
2015-Mar-03 10:32N 51°26' E 000°44'0 0.0
2015-Mar-03 09:29N 51°26' E 000°44'0 0.0
2015-Mar-03 08:32N 51°26' E 000°44'0 0.0
2015-Mar-03 07:32N 51°26' E 000°44'0 0.0
2015-Mar-03 06:26N 51°26' E 000°44'0 0.0
2015-Mar-03 05:32N 51°26' E 000°44'0 0.0
2015-Mar-03 04:32N 51°26' E 000°44'0 0.0
2015-Mar-03 03:29N 51°26' E 000°44'0 0.0
2015-Mar-03 02:32N 51°26' E 000°44'0 0.0
2015-Mar-03 01:32N 51°26' E 000°44'0 0.0
2015-Mar-03 00:28N 51°26' E 000°44'0 0.0
2015-Mar-02 23:28N 51°26' E 000°44'0 0.0
2015-Mar-02 22:31N 51°26' E 000°44'0 0.0
2015-Mar-02 21:33N 51°26' E 000°44'9 9.0
2015-Mar-02 20:34N 51°29' E 000°58'1313.3
2015-Mar-02 19:33N 51°29' E 001°20'1010.1
2015-Mar-02 18:34N 51°23' E 001°33'1110.8
2015-Mar-02 17:33N 51°13' E 001°37'1110.6
2015-Mar-02 16:33N 51°02' E 001°34'1312.9
2015-Mar-02 15:32N 50°51' E 001°24'10813.6
2015-Mar-02 07:33N 50°20' W 001°20'5916.9
2015-Mar-02 04:03N 50°24' W 002°53'815.6
2015-Mar-02 03:33N 50°24' W 003°05'1414.3
2015-Mar-02 02:33N 50°25' W 003°27'1211.6
2015-Mar-02 01:33N 50°13' W 003°28'396 7.9
2015-Feb-27 23:28N 43°43' W 005°04'1414.7
2015-Feb-27 22:31N 43°47' W 005°23'6 2.4
2015-Feb-27 20:03N 43°51' W 005°29'3 1.6
2015-Feb-27 18:09N 43°54' W 005°31'2 2.8
2015-Feb-27 17:25N 43°54' W 005°34'1213.9
2015-Feb-27 16:33N 43°55' W 005°50'33610.7
2015-Feb-26 09:16N 39°11' W 009°51'1312.9
2015-Feb-26 08:17N 38°58' W 009°51'912.9
2015-Feb-26 07:33N 38°49' W 009°51'1212.6
2015-Feb-26 06:33N 38°37' W 009°48'1212.3
2015-Feb-26 05:33N 38°29' W 009°36'1313.1
2015-Feb-26 04:33N 38°23' W 009°21'1312.7
2015-Feb-26 03:33N 38°23' W 009°05'1010.5
2015-Feb-26 02:33N 38°30' W 008°55'2 2.3
2015-Feb-26 01:30N 38°31' W 008°52'0 0.0
2015-Feb-26 00:12N 38°31' W 008°52'0 0.0
2015-Feb-25 21:03N 38°31' W 008°52'0 0.0
2015-Feb-25 17:24N 38°31' W 008°52'0 0.0
2015-Feb-25 16:18N 38°31' W 008°52'2 3.1
2015-Feb-25 15:33N 38°30' W 008°55'8 7.5
2015-Feb-25 14:33N 38°24' W 009°00'9 8.9
2015-Feb-25 13:33N 38°15' W 009°02'1414.1
2015-Feb-25 12:33N 38°01' W 009°06'1313.1
2015-Feb-25 11:33N 37°49' W 009°10'1313.1
2015-Feb-25 10:33N 37°36' W 009°13'6310.6
2015-Feb-25 04:33N 36°37' W 008°43'1313.3
2015-Feb-25 03:32N 36°33' W 008°27'14313.7
2015-Feb-24 17:04N 35°58' W 005°35'712.8
2015-Feb-24 16:33N 35°59' W 005°27'1110.9
2015-Feb-24 15:33N 36°01' W 005°14'  

Dump ship's entire track history